createdAt,value
2018-08-09T00:00:32.594Z,68.68
2018-08-09T00:01:32.599Z,68.59
2018-08-09T00:02:32.574Z,68.59
2018-08-09T00:03:32.559Z,68.79
2018-08-09T00:04:32.547Z,68.88
2018-08-09T00:05:32.556Z,69.39
2018-08-09T00:06:32.526Z,68.92
2018-08-09T00:07:32.516Z,68.59
2018-08-09T00:08:32.505Z,68.99
2018-08-09T00:09:32.493Z,68.88
2018-08-09T00:10:32.478Z,68.79
2018-08-09T00:11:32.487Z,68.79
2018-08-09T00:12:32.458Z,68.79
2018-08-09T00:13:32.446Z,68.59
2018-08-09T00:14:32.475Z,68.49
2018-08-09T00:15:32.427Z,68.79
2018-08-09T00:16:32.415Z,68.68
2018-08-09T00:17:32.400Z,68.55
2018-08-09T00:18:32.391Z,68.79
2018-08-09T00:19:32.378Z,68.55
2018-08-09T00:20:32.384Z,68.59
2018-08-09T00:21:32.355Z,68.79
2018-08-09T00:22:32.347Z,68.79
2018-08-09T00:23:32.330Z,69.89
2018-08-09T00:24:32.324Z,69.49
2018-08-09T00:25:32.354Z,69.42
2018-08-09T00:26:32.298Z,69.62
2018-08-09T00:27:32.294Z,69.62
2018-08-09T00:28:32.275Z,69.62
2018-08-09T00:29:32.266Z,69.52
2018-08-09T00:30:32.252Z,69.49
2018-08-09T00:31:32.256Z,69.42
2018-08-09T00:32:32.230Z,69.59
2018-08-09T00:33:32.220Z,69.39
2018-08-09T00:34:32.209Z,69.49
2018-08-09T00:35:32.213Z,69.69
2018-08-09T00:36:32.201Z,69.69
2018-08-09T00:37:32.171Z,69.49
2018-08-09T00:38:32.162Z,69.69
2018-08-09T00:39:32.150Z,69.69
2018-08-09T00:40:32.161Z,69.99
2018-08-09T00:41:32.156Z,68.99
2018-08-09T00:42:32.118Z,69.39
2018-08-09T00:43:32.107Z,69.39
2018-08-09T00:44:32.094Z,69.79
2018-08-09T00:45:32.084Z,68.79
2018-08-09T00:46:32.071Z,69.19
2018-08-09T00:47:32.083Z,69.29
2018-08-09T00:48:32.048Z,69.59
2018-08-09T00:49:32.039Z,69.49
2018-08-09T00:50:32.027Z,69.69
2018-08-09T00:51:32.019Z,69.42
2018-08-09T00:52:32.005Z,69.39
2018-08-09T00:53:32.021Z,69.42
2018-08-09T00:54:31.981Z,69.62
2018-08-09T00:55:31.971Z,69.52
2018-08-09T00:56:31.956Z,69.82
2018-08-09T00:57:31.962Z,69.62
2018-08-09T00:58:31.933Z,69.82
2018-08-09T00:59:31.925Z,69.82
2018-08-09T01:00:31.914Z,69.62
2018-08-09T01:01:31.901Z,69.92
2018-08-09T01:02:31.909Z,69.85
2018-08-09T01:03:31.890Z,70.03
2018-08-09T01:04:31.866Z,69.85
2018-08-09T01:05:31.856Z,69.82
2018-08-09T01:06:31.845Z,70.36
2018-08-09T01:07:31.833Z,70.46
2018-08-09T01:08:31.835Z,70.56
2018-08-09T01:09:31.812Z,70.16
2018-08-09T01:10:31.799Z,70.86
2018-08-09T01:11:31.787Z,71.06
2018-08-09T01:12:31.778Z,70.86
2018-08-09T01:13:31.778Z,70.86
2018-08-09T01:14:31.755Z,70.86
2018-08-09T01:15:31.740Z,71.00
2018-08-09T01:16:31.729Z,70.96
2018-08-09T01:17:31.721Z,70.89
2018-08-09T01:18:31.721Z,71.00
2018-08-09T01:19:31.697Z,71.16
2018-08-09T01:20:31.686Z,71.20
2018-08-09T01:21:31.677Z,70.96
2018-08-09T01:22:31.661Z,70.39
2018-08-09T01:23:31.665Z,70.89
2018-08-09T01:24:31.641Z,71.50
2018-08-09T01:25:31.631Z,71.80
2018-08-09T01:26:31.628Z,71.30
2018-08-09T01:27:31.610Z,71.90
2018-08-09T01:28:31.616Z,72.50
2018-08-09T01:29:31.589Z,72.34
2018-08-09T01:30:31.572Z,72.34
2018-08-09T01:31:31.564Z,72.34
2018-08-09T01:32:31.552Z,72.64
2018-08-09T01:33:31.543Z,72.54
2018-08-09T01:34:31.549Z,72.84
2018-08-09T01:35:31.520Z,72.74
2018-08-09T01:36:31.511Z,72.84
2018-08-09T01:37:31.498Z,72.84
2018-08-09T01:38:31.491Z,72.94
2018-08-09T01:39:31.476Z,72.84
2018-08-09T01:40:31.489Z,72.74
2018-08-09T01:41:31.459Z,72.84
2018-08-09T01:42:31.448Z,72.64
2018-08-09T01:43:31.432Z,73.04
2018-08-09T01:44:31.424Z,72.88
2018-08-09T01:45:31.412Z,72.67
2018-08-09T01:46:31.416Z,73.28
2018-08-09T01:47:31.405Z,73.38
2018-08-09T01:48:31.382Z,73.44
2018-08-09T01:49:31.372Z,72.94
2018-08-09T01:50:31.361Z,72.88
2018-08-09T01:51:31.354Z,73.38
2018-08-09T01:52:31.353Z,73.14
2018-08-09T01:53:31.342Z,73.04
2018-08-09T01:54:31.328Z,73.04
2018-08-09T01:55:31.308Z,73.18
2018-08-09T01:56:31.295Z,73.38
2018-08-09T01:57:31.289Z,73.38
2018-08-09T01:58:31.274Z,73.48
2018-08-09T01:59:31.281Z,73.68
2018-08-09T02:00:31.252Z,73.68
2018-08-09T02:01:31.241Z,73.58
2018-08-09T02:02:31.232Z,73.68
2018-08-09T02:03:31.223Z,73.48
2018-08-09T02:04:31.210Z,73.28
2018-08-09T02:05:31.214Z,73.38
2018-08-09T02:06:31.183Z,73.48
2018-08-09T02:07:31.177Z,73.72
2018-08-09T02:08:31.164Z,73.58
2018-08-09T02:09:31.153Z,73.48
2018-08-09T02:10:31.157Z,73.98
2018-08-09T02:11:31.130Z,73.48
2018-08-09T02:12:31.119Z,73.88
2018-08-09T02:13:31.105Z,73.78
2018-08-09T02:14:31.096Z,73.82
2018-08-09T02:15:31.102Z,73.78
2018-08-09T02:16:31.074Z,73.58
2018-08-09T02:17:31.062Z,73.38
2018-08-09T02:18:31.052Z,73.52
2018-08-09T02:19:31.045Z,73.98
2018-08-09T02:20:31.046Z,73.78
2018-08-09T02:21:31.037Z,74.08
2018-08-09T02:22:31.009Z,74.32
2018-08-09T02:23:31.001Z,74.29
2018-08-09T02:24:30.989Z,74.08
2018-08-09T02:25:30.978Z,74.02
2018-08-09T02:26:30.990Z,74.32
2018-08-09T02:27:30.957Z,74.32
2018-08-09T02:28:30.948Z,75.43
2018-08-09T02:29:30.936Z,75.83
2018-08-09T02:30:30.925Z,75.36
2018-08-09T02:31:30.917Z,75.36
2018-08-09T02:32:30.923Z,75.36
2018-08-09T02:33:30.895Z,75.26
2018-08-09T02:34:30.885Z,74.66
2018-08-09T02:35:30.872Z,74.82
2018-08-09T02:36:30.865Z,74.93
2018-08-09T02:37:30.854Z,74.55
2018-08-09T02:38:30.885Z,74.42
2018-08-09T02:39:30.827Z,74.73
2018-08-09T02:40:30.818Z,74.32
2018-08-09T02:41:30.811Z,74.22
2018-08-09T02:42:30.800Z,74.32
2018-08-09T02:43:30.792Z,74.42
2018-08-09T02:44:30.791Z,74.42
2018-08-09T02:45:30.765Z,74.32
2018-08-09T02:46:30.756Z,74.55
2018-08-09T02:47:30.741Z,74.35
2018-08-09T02:48:30.731Z,74.32
2018-08-09T02:49:30.762Z,74.35
2018-08-09T02:50:30.713Z,74.46
2018-08-09T02:51:30.703Z,74.26
2018-08-09T02:52:30.693Z,74.15
2018-08-09T02:53:30.680Z,74.26
2018-08-09T02:54:30.666Z,74.15
2018-08-09T02:55:30.671Z,74.26
2018-08-09T02:56:30.648Z,74.15
2018-08-09T02:57:30.639Z,74.35
2018-08-09T02:58:30.625Z,74.15
2018-08-09T02:59:30.617Z,74.55
2018-08-09T03:00:30.622Z,74.35
2018-08-09T03:01:30.600Z,74.46
2018-08-09T03:02:30.595Z,74.46
2018-08-09T03:03:30.577Z,74.35
2018-08-09T03:04:30.566Z,74.39
2018-08-09T03:05:30.568Z,74.39
2018-08-09T03:06:30.539Z,74.05
2018-08-09T03:07:30.532Z,73.99
2018-08-09T03:08:30.520Z,74.35
2018-08-09T03:09:30.507Z,74.29
2018-08-09T03:10:30.497Z,74.08
2018-08-09T03:11:30.500Z,73.99
2018-08-09T03:12:30.476Z,74.08
2018-08-09T03:13:30.462Z,73.79
2018-08-09T03:14:30.470Z,74.19
2018-08-09T03:15:30.446Z,73.99
2018-08-09T03:16:30.434Z,74.19
2018-08-09T03:17:30.461Z,74.19
2018-08-09T03:18:30.411Z,74.08
2018-08-09T03:19:30.400Z,73.68
2018-08-09T03:20:30.392Z,73.79
2018-08-09T03:21:30.382Z,73.68
2018-08-09T03:22:30.372Z,74.19
2018-08-09T03:23:30.373Z,74.39
2018-08-09T03:24:30.448Z,74.49
2018-08-09T03:25:30.339Z,74.29
2018-08-09T03:26:30.328Z,74.59
2018-08-09T03:27:30.315Z,74.79
2018-08-09T03:28:30.322Z,74.39
2018-08-09T03:29:30.294Z,74.19
2018-08-09T03:30:30.318Z,74.08
2018-08-09T03:31:30.273Z,74.49
2018-08-09T03:32:30.262Z,74.19
2018-08-09T03:33:30.250Z,74.29
2018-08-09T03:34:30.240Z,74.19
2018-08-09T03:35:30.229Z,74.29
2018-08-09T03:36:30.233Z,74.19
2018-08-09T03:37:30.207Z,74.08
2018-08-09T03:38:30.201Z,74.29
2018-08-09T03:39:30.204Z,74.59
2018-08-09T03:40:30.176Z,74.49
2018-08-09T03:41:30.181Z,74.19
2018-08-09T03:42:30.157Z,74.59
2018-08-09T03:43:30.143Z,74.39
2018-08-09T03:44:30.137Z,74.29
2018-08-09T03:45:30.144Z,74.63
2018-08-09T03:46:30.113Z,74.59
2018-08-09T03:47:30.100Z,74.49
2018-08-09T03:48:30.090Z,74.83
2018-08-09T03:49:30.081Z,75.20
2018-08-09T03:50:30.070Z,74.73
2018-08-09T03:51:30.100Z,75.30
2018-08-09T03:52:30.047Z,74.90
2018-08-09T03:53:30.037Z,74.79
2018-08-09T03:54:30.025Z,74.79
2018-08-09T03:55:30.014Z,74.90
2018-08-09T03:56:30.006Z,74.79
2018-08-09T03:57:30.007Z,75.20
2018-08-09T03:58:29.983Z,75.20
2018-08-09T03:59:30.036Z,75.80
2018-08-09T04:00:29.961Z,75.20
2018-08-09T04:01:29.956Z,75.80
2018-08-09T04:02:29.944Z,75.50
2018-08-09T04:03:29.945Z,75.70
2018-08-09T04:04:29.924Z,75.10
2018-08-09T04:05:29.908Z,75.70
2018-08-09T04:06:29.894Z,75.40
2018-08-09T04:07:29.886Z,75.30
2018-08-09T04:08:29.872Z,75.20
2018-08-09T04:09:29.878Z,75.50
2018-08-09T04:10:29.869Z,75.30
2018-08-09T04:11:29.842Z,75.50
2018-08-09T04:12:29.831Z,75.20
2018-08-09T04:13:29.817Z,75.40
2018-08-09T04:14:29.813Z,75.20
2018-08-09T04:15:29.800Z,75.40
2018-08-09T04:16:29.799Z,75.30
2018-08-09T04:17:29.777Z,74.79
2018-08-09T04:18:29.768Z,75.50
2018-08-09T04:19:29.753Z,75.60
2018-08-09T04:20:29.743Z,74.79
2018-08-09T04:21:29.766Z,75.20
2018-08-09T04:22:29.721Z,75.16
2018-08-09T04:23:29.709Z,74.76
2018-08-09T04:24:29.701Z,74.96
2018-08-09T04:25:29.692Z,75.06
2018-08-09T04:26:29.712Z,74.66
2018-08-09T04:27:29.678Z,74.69
2018-08-09T04:28:29.657Z,74.99
2018-08-09T04:29:29.648Z,74.39
2018-08-09T04:30:29.637Z,74.26
2018-08-09T04:31:29.632Z,74.26
2018-08-09T04:32:29.625Z,74.26
2018-08-09T04:33:29.604Z,74.26
2018-08-09T04:34:29.595Z,74.35
2018-08-09T04:35:29.582Z,74.26
2018-08-09T04:36:29.571Z,74.35
2018-08-09T04:37:29.621Z,74.35
2018-08-09T04:38:29.553Z,74.35
2018-08-09T04:39:29.604Z,74.46
2018-08-09T04:40:29.532Z,74.26
2018-08-09T04:41:29.522Z,74.35
2018-08-09T04:42:29.511Z,74.46
2018-08-09T04:43:29.512Z,74.35
2018-08-09T04:44:29.491Z,74.35
2018-08-09T04:45:29.480Z,74.66
2018-08-09T04:46:29.468Z,74.26
2018-08-09T04:47:29.461Z,74.15
2018-08-09T04:48:29.462Z,74.26
2018-08-09T04:49:29.437Z,74.46
2018-08-09T04:50:29.427Z,74.26
2018-08-09T04:51:29.413Z,74.15
2018-08-09T04:52:29.403Z,74.26
2018-08-09T04:53:29.430Z,74.22
2018-08-09T04:54:29.380Z,74.35
2018-08-09T04:55:29.370Z,74.46
2018-08-09T04:56:29.361Z,74.42
2018-08-09T04:57:29.348Z,74.62
2018-08-09T04:58:29.390Z,74.46
2018-08-09T04:59:29.340Z,74.73
2018-08-09T05:00:29.332Z,74.96
2018-08-09T05:01:29.309Z,75.02
2018-08-09T05:02:29.299Z,75.76
2018-08-09T05:03:29.305Z,75.43
2018-08-09T05:04:29.272Z,75.43
2018-08-09T05:05:29.263Z,75.53
2018-08-09T05:06:29.254Z,75.53
2018-08-09T05:07:29.245Z,75.13
2018-08-09T05:08:29.233Z,75.23
2018-08-09T05:09:29.257Z,74.93
2018-08-09T05:10:29.207Z,75.02
2018-08-09T05:11:29.196Z,75.23
2018-08-09T05:12:29.189Z,75.63
2018-08-09T05:13:29.200Z,74.99
2018-08-09T05:14:29.170Z,74.79
2018-08-09T05:15:29.156Z,74.79
2018-08-09T05:16:29.141Z,74.79
2018-08-09T05:17:29.129Z,74.58
2018-08-09T05:18:29.116Z,74.25
2018-08-09T05:19:29.120Z,73.65
2018-08-09T05:20:29.097Z,73.95
2018-08-09T05:21:29.091Z,74.05
2018-08-09T05:22:29.099Z,72.64
2018-08-09T05:23:29.060Z,73.11
2018-08-09T05:24:29.053Z,72.91
2018-08-09T05:25:29.054Z,71.97
2018-08-09T05:26:29.071Z,71.77
2018-08-09T05:27:29.015Z,71.47
2018-08-09T05:28:29.015Z,71.87
2018-08-09T05:29:29.014Z,72.13
2018-08-09T05:30:28.991Z,71.50
2018-08-09T05:31:28.972Z,70.89
2018-08-09T05:32:28.962Z,70.50
2018-08-09T05:33:28.951Z,69.56
2018-08-09T05:34:28.941Z,69.42
2018-08-09T05:35:28.938Z,68.39
2018-08-09T05:36:28.963Z,67.45
2018-08-09T05:37:28.908Z,66.69
2018-08-09T05:38:28.913Z,66.05
2018-08-09T05:39:28.888Z,64.95
2018-08-09T05:40:28.874Z,64.22
2018-08-09T05:41:28.886Z,63.89
2018-08-09T05:42:28.918Z,63.26
2018-08-09T05:43:28.840Z,62.73
2018-08-09T05:44:28.837Z,61.43
2018-08-09T05:45:28.817Z,61.51
2018-08-09T05:46:28.807Z,60.80
2018-08-09T05:47:28.854Z,61.51
2018-08-09T05:48:28.788Z,62.13
2018-08-09T05:49:28.881Z,62.46
2018-08-09T05:50:28.766Z,62.96
2018-08-09T05:51:28.815Z,62.86
2018-08-09T05:52:28.743Z,61.63
2018-08-09T05:53:28.747Z,62.18
2018-08-09T05:54:28.719Z,60.55
2018-08-09T05:55:28.709Z,60.09
2018-08-09T05:56:28.699Z,60.06
2018-08-09T05:57:28.689Z,59.34
2018-08-09T05:58:28.776Z,58.11
2018-08-09T05:59:28.666Z,57.09
2018-08-09T06:00:28.654Z,56.40
2018-08-09T06:01:28.643Z,56.00
2018-08-09T06:02:28.638Z,56.23
2018-08-09T06:03:28.623Z,56.59
2018-08-09T06:04:28.631Z,56.40
2018-08-09T06:05:28.659Z,56.00
2018-08-09T06:06:28.588Z,56.00
2018-08-09T06:07:28.626Z,56.12
2018-08-09T06:08:28.567Z,56.75
2018-08-09T06:09:28.555Z,58.07
2018-08-09T06:10:28.618Z,58.80
2018-08-09T06:11:28.631Z,59.42
2018-08-09T06:12:28.524Z,60.15
2018-08-09T06:13:28.542Z,60.95
2018-08-09T06:14:28.503Z,60.97
2018-08-09T06:15:28.503Z,61.51
2018-08-09T06:16:28.479Z,62.53
2018-08-09T06:17:28.565Z,61.83
2018-08-09T06:18:28.459Z,62.56
2018-08-09T06:19:28.463Z,63.06
2018-08-09T06:20:28.433Z,63.36
2018-08-09T06:21:28.424Z,63.56
2018-08-09T06:22:28.411Z,63.56
2018-08-09T06:23:28.400Z,63.86
2018-08-09T06:24:28.389Z,63.59
2018-08-09T06:25:28.479Z,64.26
2018-08-09T06:26:28.581Z,64.09
2018-08-09T06:27:28.369Z,64.29
2018-08-09T06:28:28.349Z,63.89
2018-08-09T06:29:28.338Z,64.79
2018-08-09T06:30:28.399Z,63.79
2018-08-09T06:31:28.437Z,64.39
2018-08-09T06:32:28.316Z,63.36
2018-08-09T06:33:28.345Z,63.86
2018-08-09T06:34:28.415Z,63.86
2018-08-09T06:35:28.269Z,63.43
2018-08-09T06:36:28.362Z,62.83
2018-08-09T06:37:28.281Z,62.20
2018-08-09T06:38:28.363Z,61.38
2018-08-09T06:39:28.225Z,60.58
2018-08-09T06:40:28.371Z,60.65
2018-08-09T06:41:28.208Z,60.28
2018-08-09T06:42:28.193Z,61.18
2018-08-09T06:43:28.199Z,60.88
2018-08-09T06:44:28.275Z,61.80
2018-08-09T06:45:28.161Z,61.60
2018-08-09T06:46:28.150Z,61.21
2018-08-09T06:47:28.141Z,61.51
2018-08-09T06:48:28.294Z,61.90
2018-08-09T06:49:28.118Z,62.30
2018-08-09T06:50:28.112Z,61.93
2018-08-09T06:51:28.235Z,61.71
2018-08-09T06:52:28.090Z,62.50
2018-08-09T06:53:28.116Z,61.71
2018-08-09T06:54:28.084Z,61.60
2018-08-09T06:55:28.061Z,61.90
2018-08-09T06:56:28.044Z,62.50
2018-08-09T06:57:28.275Z,61.30
2018-08-09T06:58:28.024Z,62.20
2018-08-09T06:59:28.013Z,61.51
2018-08-09T07:00:28.016Z,62.10
2018-08-09T07:01:27.995Z,61.51
2018-08-09T07:02:27.982Z,62.10
2018-08-09T07:03:27.967Z,62.01
2018-08-09T07:04:27.958Z,61.90
2018-08-09T07:05:28.085Z,62.01
2018-08-09T07:06:27.934Z,62.53
2018-08-09T07:07:27.925Z,62.73
2018-08-09T07:08:27.916Z,62.73
2018-08-09T07:09:27.977Z,62.73
2018-08-09T07:10:27.995Z,63.00
2018-08-09T07:11:27.904Z,63.00
2018-08-09T07:12:27.872Z,63.20
2018-08-09T07:13:27.862Z,63.00
2018-08-09T07:14:27.849Z,62.40
2018-08-09T07:15:27.845Z,62.73
2018-08-09T07:16:27.830Z,62.83
2018-08-09T07:17:27.829Z,62.53
2018-08-09T07:18:27.807Z,63.63
2018-08-09T07:19:27.797Z,63.23
2018-08-09T07:20:27.890Z,63.76
2018-08-09T07:21:27.779Z,63.96
2018-08-09T07:22:27.775Z,63.86
2018-08-09T07:23:27.757Z,63.66
2018-08-09T07:24:27.741Z,63.96
2018-08-09T07:25:27.822Z,64.16
2018-08-09T07:26:27.792Z,64.26
2018-08-09T07:27:27.819Z,64.49
2018-08-09T07:28:27.706Z,64.49
2018-08-09T07:29:27.687Z,64.79
2018-08-09T07:30:27.687Z,64.79
2018-08-09T07:31:27.678Z,65.29
2018-08-09T07:32:27.654Z,66.39
2018-08-09T07:33:27.656Z,66.39
2018-08-09T07:34:27.682Z,67.19
2018-08-09T07:35:27.621Z,67.93
2018-08-09T07:36:27.626Z,68.02
2018-08-09T07:37:27.598Z,68.43
2018-08-09T07:38:27.588Z,70.03
2018-08-09T07:39:27.630Z,71.23
2018-08-09T07:40:27.578Z,72.26
2018-08-09T07:41:27.596Z,72.66
2018-08-09T07:42:27.585Z,73.30
2018-08-09T07:43:27.610Z,75.00
2018-08-09T07:44:27.520Z,76.34
2018-08-09T07:45:27.512Z,76.34
2018-08-09T07:46:27.501Z,78.18
2018-08-09T07:47:27.487Z,80.08
2018-08-09T07:48:27.555Z,81.38
2018-08-09T07:49:27.518Z,83.33
2018-08-09T07:50:27.454Z,83.73
2018-08-09T07:51:27.448Z,83.27
2018-08-09T07:52:27.436Z,85.17
2018-08-09T07:53:27.426Z,86.52
2018-08-09T07:54:27.565Z,86.92
2018-08-09T07:55:27.402Z,87.66
2018-08-09T07:56:27.395Z,87.22
2018-08-09T07:57:27.378Z,88.07
2018-08-09T07:58:27.372Z,87.87
2018-08-09T07:59:27.361Z,88.37
2018-08-09T08:00:27.368Z,88.57
2018-08-09T08:01:27.348Z,88.27
2018-08-09T08:02:27.326Z,88.47
2018-08-09T08:03:27.314Z,88.87
2018-08-09T08:04:27.302Z,89.42
2018-08-09T08:05:27.292Z,89.42
2018-08-09T08:06:27.299Z,88.81
2018-08-09T08:07:27.272Z,88.61
2018-08-09T08:08:27.325Z,89.82
2018-08-09T08:09:27.273Z,89.82
2018-08-09T08:10:27.245Z,90.12
2018-08-09T08:11:27.228Z,89.82
2018-08-09T08:12:27.217Z,89.82
2018-08-09T08:13:27.207Z,90.82
2018-08-09T08:14:27.198Z,90.72
2018-08-09T08:15:27.210Z,91.02
2018-08-09T08:16:27.172Z,91.02
2018-08-09T08:17:27.161Z,89.82
2018-08-09T08:18:27.153Z,90.52
2018-08-09T08:19:27.138Z,90.52
2018-08-09T08:20:27.128Z,89.15
2018-08-09T08:21:27.159Z,89.72
2018-08-09T08:22:27.110Z,90.02
2018-08-09T08:23:27.096Z,90.72
2018-08-09T08:24:27.085Z,90.32
2018-08-09T08:25:27.073Z,91.02
2018-08-09T08:26:27.064Z,90.62
2018-08-09T08:27:27.070Z,90.82
2018-08-09T08:28:27.042Z,90.98
2018-08-09T08:29:27.036Z,91.02
2018-08-09T08:30:27.024Z,90.32
2018-08-09T08:31:27.008Z,91.18
2018-08-09T08:32:27.017Z,90.78
2018-08-09T08:33:26.989Z,90.68
2018-08-09T08:34:27.008Z,89.83
2018-08-09T08:35:26.969Z,89.87
2018-08-09T08:36:26.955Z,90.73
2018-08-09T08:37:26.945Z,90.53
2018-08-09T08:38:26.948Z,90.53
2018-08-09T08:39:26.924Z,90.59
2018-08-09T08:40:26.935Z,90.99
2018-08-09T08:41:26.983Z,90.79
2018-08-09T08:42:26.895Z,89.99
2018-08-09T08:43:26.882Z,89.69
2018-08-09T08:44:26.909Z,89.29
2018-08-09T08:45:26.874Z,86.98
2018-08-09T08:46:26.860Z,88.09
2018-08-09T08:47:26.860Z,88.18
2018-08-09T08:48:26.827Z,88.59
2018-08-09T08:49:26.828Z,89.18
2018-08-09T08:50:26.804Z,87.28
2018-08-09T08:51:26.812Z,88.39
2018-08-09T08:52:26.786Z,87.84
2018-08-09T08:53:26.768Z,87.84
2018-08-09T08:54:26.758Z,88.14
2018-08-09T08:55:26.747Z,88.70
2018-08-09T08:56:26.739Z,88.64
2018-08-09T08:57:26.739Z,88.44
2018-08-09T08:58:26.715Z,89.30
2018-08-09T08:59:26.705Z,89.11
2018-08-09T09:00:26.695Z,86.44
2018-08-09T09:01:26.700Z,87.30
2018-08-09T09:02:26.670Z,86.50
2018-08-09T09:03:26.664Z,86.60
2018-08-09T09:04:26.681Z,86.60
2018-08-09T09:05:26.667Z,87.10
2018-08-09T09:06:26.628Z,87.10
2018-08-09T09:07:26.616Z,86.60
2018-08-09T09:08:26.615Z,86.80
2018-08-09T09:09:26.595Z,87.20
2018-08-09T09:10:26.607Z,86.80
2018-08-09T09:11:26.572Z,85.49
2018-08-09T09:12:26.560Z,85.49
2018-08-09T09:13:26.555Z,84.59
2018-08-09T09:14:26.541Z,84.69
2018-08-09T09:15:26.527Z,84.69
2018-08-09T09:16:26.536Z,85.89
2018-08-09T09:17:26.508Z,85.69
2018-08-09T09:18:26.495Z,86.40
2018-08-09T09:19:26.484Z,86.10
2018-08-09T09:20:26.482Z,84.59
2018-08-09T09:21:26.475Z,84.39
2018-08-09T09:22:26.449Z,85.10
2018-08-09T09:23:26.441Z,86.05
2018-08-09T09:24:26.431Z,86.05
2018-08-09T09:25:26.417Z,86.05
2018-08-09T09:26:26.423Z,84.75
2018-08-09T09:27:26.400Z,84.85
2018-08-09T09:28:26.384Z,85.75
2018-08-09T09:29:26.375Z,85.75
2018-08-09T09:30:26.364Z,84.85
2018-08-09T09:31:26.377Z,85.35
2018-08-09T09:32:26.340Z,86.32
2018-08-09T09:33:26.332Z,86.01
2018-08-09T09:34:26.321Z,84.15
2018-08-09T09:35:26.310Z,86.05
2018-08-09T09:36:26.298Z,86.32
2018-08-09T09:37:26.302Z,85.82
2018-08-09T09:38:26.280Z,86.01
2018-08-09T09:39:26.267Z,86.32
2018-08-09T09:40:26.256Z,85.17
2018-08-09T09:41:26.311Z,84.77
2018-08-09T09:42:26.248Z,85.37
2018-08-09T09:43:26.237Z,84.57
2018-08-09T09:44:26.210Z,84.37
2018-08-09T09:45:26.201Z,84.37
2018-08-09T09:46:26.190Z,84.17
2018-08-09T09:47:26.176Z,84.37
2018-08-09T09:48:26.189Z,85.07
2018-08-09T09:49:26.156Z,84.17
2018-08-09T09:50:26.147Z,83.87
2018-08-09T09:51:26.133Z,83.37
2018-08-09T09:52:26.123Z,84.67
2018-08-09T09:53:26.113Z,84.87
2018-08-09T09:54:26.124Z,82.77
2018-08-09T09:55:26.092Z,83.31
2018-08-09T09:56:26.079Z,84.11
2018-08-09T09:57:26.071Z,84.31
2018-08-09T09:58:26.057Z,84.41
2018-08-09T09:59:26.047Z,84.81
2018-08-09T10:00:26.052Z,85.01
2018-08-09T10:01:26.031Z,86.21
2018-08-09T10:02:26.020Z,86.37
2018-08-09T10:03:26.004Z,87.18
2018-08-09T10:04:26.006Z,86.98
2018-08-09T10:05:26.009Z,86.18
2018-08-09T10:06:25.973Z,85.87
2018-08-09T10:07:26.014Z,86.47
2018-08-09T10:08:25.950Z,85.97
2018-08-09T10:09:25.940Z,86.27
2018-08-09T10:10:25.973Z,86.83
2018-08-09T10:11:25.928Z,86.93
2018-08-09T10:12:25.906Z,86.49
2018-08-09T10:13:25.893Z,87.19
2018-08-09T10:14:26.056Z,86.89
2018-08-09T10:15:25.873Z,85.49
2018-08-09T10:16:25.862Z,85.79
2018-08-09T10:17:25.850Z,85.55
2018-08-09T10:18:25.843Z,85.35
2018-08-09T10:19:25.831Z,83.85
2018-08-09T10:20:25.837Z,85.15
2018-08-09T10:21:25.814Z,84.11
2018-08-09T10:22:25.800Z,85.51
2018-08-09T10:23:25.789Z,85.07
2018-08-09T10:24:25.776Z,83.81
2018-08-09T10:25:25.804Z,84.87
2018-08-09T10:26:25.754Z,84.33
2018-08-09T10:27:25.746Z,81.73
2018-08-09T10:28:25.734Z,82.43
2018-08-09T10:29:25.720Z,82.39
2018-08-09T10:30:25.710Z,82.20
2018-08-09T10:31:25.717Z,82.71
2018-08-09T10:32:25.687Z,78.83
2018-08-09T10:33:25.678Z,80.62
2018-08-09T10:34:25.668Z,79.19
2018-08-09T10:35:25.740Z,80.38
2018-08-09T10:36:25.648Z,81.04
2018-08-09T10:37:25.637Z,80.30
2018-08-09T10:38:25.627Z,80.07
2018-08-09T10:39:25.617Z,78.64
2018-08-09T10:40:25.607Z,77.11
2018-08-09T10:41:25.607Z,76.18
2018-08-09T10:42:25.605Z,75.88
2018-08-09T10:43:25.572Z,75.65
2018-08-09T10:44:25.563Z,75.25
2018-08-09T10:45:25.553Z,75.21
2018-08-09T10:46:25.543Z,75.57
2018-08-09T10:47:25.537Z,72.96
2018-08-09T10:48:25.537Z,73.06
2018-08-09T10:49:25.509Z,71.67
2018-08-09T10:50:25.501Z,70.78
2018-08-09T10:51:25.491Z,71.37
2018-08-09T10:52:25.490Z,69.20
2018-08-09T10:53:25.469Z,71.37
2018-08-09T10:54:25.458Z,69.79
2018-08-09T10:55:25.447Z,69.79
2018-08-09T10:56:25.437Z,70.15
2018-08-09T10:57:25.458Z,69.16
2018-08-09T10:58:25.416Z,69.26
2018-08-09T10:59:25.418Z,66.58
2018-08-09T11:00:25.396Z,69.92
2018-08-09T11:01:25.388Z,68.76
2018-08-09T11:02:25.377Z,68.83
2018-08-09T11:03:25.383Z,68.63
2018-08-09T11:04:25.357Z,68.70
2018-08-09T11:05:25.346Z,68.50
2018-08-09T11:06:25.338Z,66.09
2018-08-09T11:07:25.327Z,69.06
2018-08-09T11:08:25.347Z,66.19
2018-08-09T11:09:25.304Z,67.08
2018-08-09T11:10:25.295Z,65.86
2018-08-09T11:11:25.284Z,65.96
2018-08-09T11:12:25.271Z,65.77
2018-08-09T11:13:25.264Z,65.86
2018-08-09T11:14:25.269Z,65.66
2018-08-09T11:15:25.244Z,65.77
2018-08-09T11:16:25.236Z,67.25
2018-08-09T11:17:25.231Z,66.62
2018-08-09T11:18:25.231Z,65.04
2018-08-09T11:19:25.223Z,65.34
2018-08-09T11:20:25.202Z,64.84
2018-08-09T11:21:25.181Z,65.83
2018-08-09T11:22:25.176Z,66.49
2018-08-09T11:23:25.162Z,65.86
2018-08-09T11:24:25.179Z,64.98
2018-08-09T11:25:25.143Z,65.47
2018-08-09T11:26:25.132Z,65.24
2018-08-09T11:27:25.126Z,64.75
2018-08-09T11:28:25.113Z,63.86
2018-08-09T11:29:25.100Z,62.48
2018-08-09T11:30:25.117Z,63.00
2018-08-09T11:31:25.081Z,63.59
2018-08-09T11:32:25.069Z,63.89
2018-08-09T11:33:25.063Z,63.79
2018-08-09T11:34:25.054Z,64.09
2018-08-09T11:35:25.076Z,62.81
2018-08-09T11:36:25.029Z,62.81
2018-08-09T11:37:25.020Z,62.31
2018-08-09T11:38:25.010Z,62.90
2018-08-09T11:39:24.998Z,62.41
2018-08-09T11:40:24.990Z,61.35
2018-08-09T11:41:24.994Z,63.03
2018-08-09T11:42:24.980Z,63.59
2018-08-09T11:43:24.958Z,61.91
2018-08-09T11:44:24.946Z,59.91
2018-08-09T11:45:24.952Z,56.19
2018-08-09T11:46:24.941Z,59.55
2018-08-09T11:47:24.918Z,60.31
2018-08-09T11:48:24.904Z,61.16
2018-08-09T11:49:24.943Z,59.85
2018-08-09T11:50:24.901Z,57.88
2018-08-09T11:51:24.873Z,57.65
2018-08-09T11:52:24.881Z,58.34
2018-08-09T11:53:24.858Z,56.77
2018-08-09T11:54:24.847Z,56.67
2018-08-09T11:55:24.833Z,58.12
2018-08-09T11:56:24.887Z,57.95
2018-08-09T11:57:24.813Z,56.74
2018-08-09T11:58:24.819Z,57.43
2018-08-09T11:59:24.836Z,56.22
2018-08-09T12:00:24.847Z,53.74
2018-08-09T12:01:24.821Z,56.00
2018-08-09T12:02:24.765Z,54.82
2018-08-09T12:03:24.759Z,53.64
2018-08-09T12:04:24.768Z,55.21
2018-08-09T12:05:24.732Z,54.52
2018-08-09T12:06:24.724Z,52.55
2018-08-09T12:07:24.773Z,53.93
2018-08-09T12:08:24.704Z,55.38
2018-08-09T12:09:24.722Z,52.62
2018-08-09T12:10:24.703Z,53.41
2018-08-09T12:11:24.672Z,52.40
2018-08-09T12:12:24.659Z,53.49
2018-08-09T12:13:24.664Z,52.60
2018-08-09T12:14:24.645Z,51.22
2018-08-09T12:15:24.693Z,53.36
2018-08-09T12:16:31.662Z,50.32
2018-08-09T12:17:24.616Z,51.50
2018-08-09T12:18:24.628Z,50.32
2018-08-09T12:19:24.713Z,51.91
2018-08-09T12:20:24.584Z,51.30
2018-08-09T12:21:24.574Z,51.47
2018-08-09T12:22:24.561Z,49.70
2018-08-09T12:23:24.596Z,51.57
2018-08-09T12:24:24.584Z,51.37
2018-08-09T12:25:24.536Z,50.98
2018-08-09T12:26:32.075Z,51.47
2018-08-09T12:27:32.097Z,49.99
2018-08-09T12:28:31.558Z,49.99
2018-08-09T12:29:24.496Z,49.41
2018-08-09T12:30:31.561Z,51.10
2018-08-09T12:31:24.476Z,51.10
2018-08-09T12:32:24.482Z,50.68
2018-08-09T12:33:31.508Z,50.88
2018-08-09T12:34:24.461Z,50.29
2018-08-09T12:35:24.436Z,50.21
2018-08-09T12:36:24.492Z,50.02
2018-08-09T12:37:24.415Z,51.59
2018-08-09T12:38:24.404Z,50.02
2018-08-09T12:39:24.404Z,50.02
2018-08-09T12:40:24.527Z,49.82
2018-08-09T12:41:31.402Z,50.02
2018-08-09T12:42:24.366Z,50.90
2018-08-09T12:43:24.358Z,50.21
2018-08-09T12:44:24.346Z,50.29
2018-08-09T12:45:24.446Z,51.15
2018-08-09T12:46:24.351Z,49.77
2018-08-09T12:47:24.319Z,49.68
2018-08-09T12:48:31.872Z,50.16
2018-08-09T12:49:24.316Z,50.24
2018-08-09T12:50:24.289Z,50.14
2018-08-09T12:51:24.279Z,47.69
2018-08-09T12:52:24.277Z,48.18